You are listening to:
LKPR Approach - Prague, Czech Republic

LKPR 241900Z 23013KT 9999 FEW018 SCT035 BKN042 00/M02 Q0996 TEMPO 4000 SN BKN013

If stream doesn't start automatically press the play button
If stream stops then reload player then press play